sensor_id;sensor_type;location;lat;lon;timestamp;P1;durP1;ratioP1;P2;durP2;ratioP2
19521;SDS011;9905;52.126;5.596;2024-01-15T00:00:52;24.95;;;23.85;;
19521;SDS011;9905;52.126;5.596;2024-01-15T00:03:19;24.02;;;22.58;;
19521;SDS011;9905;52.126;5.596;2024-01-15T00:05:46;24.02;;;23.05;;
19521;SDS011;9905;52.126;5.596;2024-01-15T00:08:13;24.98;;;23.65;;
19521;SDS011;9905;52.126;5.596;2024-01-15T00:10:39;23.63;;;22.55;;
19521;SDS011;9905;52.126;5.596;2024-01-15T00:13:06;23.73;;;22.40;;
19521;SDS011;9905;52.126;5.596;2024-01-15T00:15:34;23.27;;;22.40;;
19521;SDS011;9905;52.126;5.596;2024-01-15T00:18:01;23.98;;;23.08;;
19521;SDS011;9905;52.126;5.596;2024-01-15T00:20:28;22.92;;;21.60;;
19521;SDS011;9905;52.126;5.596;2024-01-15T00:22:55;20.95;;;20.08;;
19521;SDS011;9905;52.126;5.596;2024-01-15T00:25:22;24.25;;;22.60;;
19521;SDS011;9905;52.126;5.596;2024-01-15T00:27:48;23.42;;;22.35;;
19521;SDS011;9905;52.126;5.596;2024-01-15T00:30:15;21.55;;;20.40;;
19521;SDS011;9905;52.126;5.596;2024-01-15T00:32:44;22.48;;;21.25;;
19521;SDS011;9905;52.126;5.596;2024-01-15T00:35:11;23.10;;;22.05;;
19521;SDS011;9905;52.126;5.596;2024-01-15T00:37:38;24.75;;;23.55;;
19521;SDS011;9905;52.126;5.596;2024-01-15T00:40:05;22.77;;;21.70;;
19521;SDS011;9905;52.126;5.596;2024-01-15T00:42:33;24.13;;;22.50;;
19521;SDS011;9905;52.126;5.596;2024-01-15T00:44:59;23.67;;;22.58;;
19521;SDS011;9905;52.126;5.596;2024-01-15T00:47:26;24.75;;;23.35;;
19521;SDS011;9905;52.126;5.596;2024-01-15T00:49:54;23.25;;;21.88;;
19521;SDS011;9905;52.126;5.596;2024-01-15T00:52:21;22.67;;;21.60;;
19521;SDS011;9905;52.126;5.596;2024-01-15T00:54:48;24.55;;;23.00;;
19521;SDS011;9905;52.126;5.596;2024-01-15T00:57:14;24.77;;;23.00;;
19521;SDS011;9905;52.126;5.596;2024-01-15T00:59:41;23.65;;;22.52;;
19521;SDS011;9905;52.126;5.596;2024-01-15T01:02:08;22.00;;;20.40;;
19521;SDS011;9905;52.126;5.596;2024-01-15T01:04:35;22.92;;;21.90;;
19521;SDS011;9905;52.126;5.596;2024-01-15T01:07:03;22.60;;;21.13;;
19521;SDS011;9905;52.126;5.596;2024-01-15T01:09:30;22.13;;;20.95;;
19521;SDS011;9905;52.126;5.596;2024-01-15T01:11:57;21.35;;;20.50;;
19521;SDS011;9905;52.126;5.596;2024-01-15T01:14:23;21.95;;;20.83;;
19521;SDS011;9905;52.126;5.596;2024-01-15T01:16:50;21.05;;;19.92;;
19521;SDS011;9905;52.126;5.596;2024-01-15T01:19:17;21.92;;;20.88;;
19521;SDS011;9905;52.126;5.596;2024-01-15T01:21:43;24.48;;;19.58;;
19521;SDS011;9905;52.126;5.596;2024-01-15T01:24:12;21.45;;;20.30;;
19521;SDS011;9905;52.126;5.596;2024-01-15T01:26:38;19.48;;;18.60;;
19521;SDS011;9905;52.126;5.596;2024-01-15T01:29:05;20.33;;;19.10;;
19521;SDS011;9905;52.126;5.596;2024-01-15T01:31:32;21.38;;;19.98;;
19521;SDS011;9905;52.126;5.596;2024-01-15T01:33:59;18.60;;;17.63;;
19521;SDS011;9905;52.126;5.596;2024-01-15T01:36:25;20.90;;;19.70;;
19521;SDS011;9905;52.126;5.596;2024-01-15T01:38:52;18.83;;;18.00;;
19521;SDS011;9905;52.126;5.596;2024-01-15T01:41:20;21.00;;;19.80;;
19521;SDS011;9905;52.126;5.596;2024-01-15T01:43:49;18.65;;;17.92;;
19521;SDS011;9905;52.126;5.596;2024-01-15T01:46:16;19.88;;;18.85;;
19521;SDS011;9905;52.126;5.596;2024-01-15T01:48:43;19.70;;;19.00;;
19521;SDS011;9905;52.126;5.596;2024-01-15T01:51:10;19.45;;;18.50;;
19521;SDS011;9905;52.126;5.596;2024-01-15T01:53:38;19.48;;;18.55;;
19521;SDS011;9905;52.126;5.596;2024-01-15T01:56:05;20.63;;;19.38;;
19521;SDS011;9905;52.126;5.596;2024-01-15T01:58:34;17.38;;;16.88;;
19521;SDS011;9905;52.126;5.596;2024-01-15T02:01:01;18.95;;;18.27;;
19521;SDS011;9905;52.126;5.596;2024-01-15T02:03:29;18.05;;;17.08;;
19521;SDS011;9905;52.126;5.596;2024-01-15T02:05:57;18.85;;;18.13;;
19521;SDS011;9905;52.126;5.596;2024-01-15T02:08:25;19.70;;;18.45;;
19521;SDS011;9905;52.126;5.596;2024-01-15T02:10:52;20.23;;;19.00;;
19521;SDS011;9905;52.126;5.596;2024-01-15T02:13:20;18.42;;;17.77;;
19521;SDS011;9905;52.126;5.596;2024-01-15T02:15:48;18.50;;;17.65;;
19521;SDS011;9905;52.126;5.596;2024-01-15T02:18:15;19.48;;;18.30;;
19521;SDS011;9905;52.126;5.596;2024-01-15T02:20:41;20.85;;;19.48;;
19521;SDS011;9905;52.126;5.596;2024-01-15T02:23:11;20.73;;;19.50;;
19521;SDS011;9905;52.126;5.596;2024-01-15T02:25:39;22.67;;;20.73;;
19521;SDS011;9905;52.126;5.596;2024-01-15T02:28:07;24.80;;;23.17;;
19521;SDS011;9905;52.126;5.596;2024-01-15T02:30:36;25.00;;;23.30;;
19521;SDS011;9905;52.126;5.596;2024-01-15T02:33:04;24.75;;;23.45;;
19521;SDS011;9905;52.126;5.596;2024-01-15T02:35:31;26.02;;;24.70;;
19521;SDS011;9905;52.126;5.596;2024-01-15T02:37:58;25.13;;;23.83;;
19521;SDS011;9905;52.126;5.596;2024-01-15T02:40:26;24.77;;;23.77;;
19521;SDS011;9905;52.126;5.596;2024-01-15T02:42:53;25.20;;;23.35;;
19521;SDS011;9905;52.126;5.596;2024-01-15T02:45:20;24.13;;;23.13;;
19521;SDS011;9905;52.126;5.596;2024-01-15T02:47:47;25.60;;;24.13;;
19521;SDS011;9905;52.126;5.596;2024-01-15T02:50:14;24.13;;;22.92;;
19521;SDS011;9905;52.126;5.596;2024-01-15T02:52:41;25.88;;;24.48;;
19521;SDS011;9905;52.126;5.596;2024-01-15T02:55:08;26.25;;;24.35;;
19521;SDS011;9905;52.126;5.596;2024-01-15T02:57:37;26.45;;;25.00;;
19521;SDS011;9905;52.126;5.596;2024-01-15T03:00:04;25.35;;;24.10;;
19521;SDS011;9905;52.126;5.596;2024-01-15T03:02:32;25.95;;;24.55;;
19521;SDS011;9905;52.126;5.596;2024-01-15T03:04:59;25.05;;;24.25;;
19521;SDS011;9905;52.126;5.596;2024-01-15T03:07:25;26.88;;;25.58;;
19521;SDS011;9905;52.126;5.596;2024-01-15T03:09:53;23.92;;;22.92;;
19521;SDS011;9905;52.126;5.596;2024-01-15T03:12:20;25.35;;;24.17;;
19521;SDS011;9905;52.126;5.596;2024-01-15T03:14:48;23.73;;;22.90;;
19521;SDS011;9905;52.126;5.596;2024-01-15T03:17:15;24.98;;;23.83;;
19521;SDS011;9905;52.126;5.596;2024-01-15T03:19:41;25.10;;;23.75;;
19521;SDS011;9905;52.126;5.596;2024-01-15T03:22:08;24.58;;;23.02;;
19521;SDS011;9905;52.126;5.596;2024-01-15T03:24:35;24.42;;;23.50;;
19521;SDS011;9905;52.126;5.596;2024-01-15T03:27:02;24.30;;;23.48;;
19521;SDS011;9905;52.126;5.596;2024-01-15T03:29:29;25.50;;;24.35;;
19521;SDS011;9905;52.126;5.596;2024-01-15T03:31:57;25.02;;;24.02;;
19521;SDS011;9905;52.126;5.596;2024-01-15T03:34:24;25.17;;;24.08;;
19521;SDS011;9905;52.126;5.596;2024-01-15T03:36:51;25.58;;;24.33;;
19521;SDS011;9905;52.126;5.596;2024-01-15T03:39:17;25.05;;;24.00;;
19521;SDS011;9905;52.126;5.596;2024-01-15T03:41:44;24.17;;;23.33;;
19521;SDS011;9905;52.126;5.596;2024-01-15T03:44:11;26.38;;;25.48;;
19521;SDS011;9905;52.126;5.596;2024-01-15T03:46:38;27.05;;;25.90;;
19521;SDS011;9905;52.126;5.596;2024-01-15T03:49:06;27.55;;;26.00;;
19521;SDS011;9905;52.126;5.596;2024-01-15T03:51:33;24.60;;;23.60;;
19521;SDS011;9905;52.126;5.596;2024-01-15T03:54:00;25.25;;;24.30;;
19521;SDS011;9905;52.126;5.596;2024-01-15T03:56:27;24.30;;;23.40;;
19521;SDS011;9905;52.126;5.596;2024-01-15T03:58:53;26.40;;;25.25;;
19521;SDS011;9905;52.126;5.596;2024-01-15T04:01:20;24.38;;;23.33;;
19521;SDS011;9905;52.126;5.596;2024-01-15T04:03:47;25.30;;;24.17;;
19521;SDS011;9905;52.126;5.596;2024-01-15T04:06:15;26.58;;;25.23;;
19521;SDS011;9905;52.126;5.596;2024-01-15T04:08:41;24.42;;;23.52;;
19521;SDS011;9905;52.126;5.596;2024-01-15T04:11:08;24.45;;;23.55;;
19521;SDS011;9905;52.126;5.596;2024-01-15T04:13:35;26.00;;;24.38;;
19521;SDS011;9905;52.126;5.596;2024-01-15T04:16:02;25.73;;;24.52;;
19521;SDS011;9905;52.126;5.596;2024-01-15T04:18:29;24.55;;;23.70;;
19521;SDS011;9905;52.126;5.596;2024-01-15T04:20:56;24.73;;;23.48;;
19521;SDS011;9905;52.126;5.596;2024-01-15T04:23:24;24.02;;;23.08;;
19521;SDS011;9905;52.126;5.596;2024-01-15T04:25:51;25.90;;;24.80;;
19521;SDS011;9905;52.126;5.596;2024-01-15T04:28:18;26.35;;;25.13;;
19521;SDS011;9905;52.126;5.596;2024-01-15T04:30:45;26.35;;;25.00;;
19521;SDS011;9905;52.126;5.596;2024-01-15T04:33:12;23.83;;;22.92;;
19521;SDS011;9905;52.126;5.596;2024-01-15T04:35:38;24.92;;;23.67;;
19521;SDS011;9905;52.126;5.596;2024-01-15T04:38:05;25.17;;;24.00;;
19521;SDS011;9905;52.126;5.596;2024-01-15T04:40:33;25.88;;;24.88;;
19521;SDS011;9905;52.126;5.596;2024-01-15T04:43:00;24.70;;;23.70;;
19521;SDS011;9905;52.126;5.596;2024-01-15T04:45:27;25.80;;;24.50;;
19521;SDS011;9905;52.126;5.596;2024-01-15T04:47:55;23.55;;;22.70;;
19521;SDS011;9905;52.126;5.596;2024-01-15T04:50:23;25.05;;;23.88;;
19521;SDS011;9905;52.126;5.596;2024-01-15T04:52:49;24.92;;;23.83;;
19521;SDS011;9905;52.126;5.596;2024-01-15T04:55:16;25.08;;;24.08;;
19521;SDS011;9905;52.126;5.596;2024-01-15T04:57:44;25.52;;;24.45;;
19521;SDS011;9905;52.126;5.596;2024-01-15T05:00:12;24.52;;;23.20;;
19521;SDS011;9905;52.126;5.596;2024-01-15T05:02:39;25.67;;;24.40;;
19521;SDS011;9905;52.126;5.596;2024-01-15T05:05:06;25.90;;;24.35;;
19521;SDS011;9905;52.126;5.596;2024-01-15T05:07:33;23.85;;;22.65;;
19521;SDS011;9905;52.126;5.596;2024-01-15T05:10:00;24.52;;;23.60;;
19521;SDS011;9905;52.126;5.596;2024-01-15T05:12:26;24.55;;;23.58;;
19521;SDS011;9905;52.126;5.596;2024-01-15T05:14:55;25.10;;;24.05;;
19521;SDS011;9905;52.126;5.596;2024-01-15T05:17:21;25.88;;;24.83;;
19521;SDS011;9905;52.126;5.596;2024-01-15T05:19:48;25.45;;;24.35;;
19521;SDS011;9905;52.126;5.596;2024-01-15T05:22:15;26.65;;;25.52;;
19521;SDS011;9905;52.126;5.596;2024-01-15T05:24:41;27.58;;;26.35;;
19521;SDS011;9905;52.126;5.596;2024-01-15T05:27:08;26.40;;;24.67;;
19521;SDS011;9905;52.126;5.596;2024-01-15T05:29:35;26.63;;;25.23;;
19521;SDS011;9905;52.126;5.596;2024-01-15T05:32:03;26.27;;;24.50;;
19521;SDS011;9905;52.126;5.596;2024-01-15T05:34:30;24.25;;;23.20;;
19521;SDS011;9905;52.126;5.596;2024-01-15T05:36:57;26.35;;;24.80;;
19521;SDS011;9905;52.126;5.596;2024-01-15T05:39:23;26.77;;;25.57;;
19521;SDS011;9905;52.126;5.596;2024-01-15T05:41:50;25.88;;;24.92;;
19521;SDS011;9905;52.126;5.596;2024-01-15T05:44:17;24.08;;;23.02;;
19521;SDS011;9905;52.126;5.596;2024-01-15T05:46:44;26.17;;;24.98;;
19521;SDS011;9905;52.126;5.596;2024-01-15T05:49:12;25.40;;;24.30;;
19521;SDS011;9905;52.126;5.596;2024-01-15T05:51:39;28.45;;;26.77;;
19521;SDS011;9905;52.126;5.596;2024-01-15T05:54:05;28.63;;;27.30;;
19521;SDS011;9905;52.126;5.596;2024-01-15T05:56:32;27.58;;;26.17;;
19521;SDS011;9905;52.126;5.596;2024-01-15T05:58:59;28.33;;;26.40;;
19521;SDS011;9905;52.126;5.596;2024-01-15T06:01:26;26.63;;;25.40;;
19521;SDS011;9905;52.126;5.596;2024-01-15T06:03:53;26.50;;;25.27;;
19521;SDS011;9905;52.126;5.596;2024-01-15T06:06:21;27.48;;;26.27;;
19521;SDS011;9905;52.126;5.596;2024-01-15T06:08:48;26.38;;;25.17;;
19521;SDS011;9905;52.126;5.596;2024-01-15T06:11:14;26.42;;;25.10;;
19521;SDS011;9905;52.126;5.596;2024-01-15T06:13:41;26.27;;;25.08;;
19521;SDS011;9905;52.126;5.596;2024-01-15T06:16:14;25.63;;;24.33;;
19521;SDS011;9905;52.126;5.596;2024-01-15T06:18:41;26.83;;;25.73;;
19521;SDS011;9905;52.126;5.596;2024-01-15T06:21:08;26.27;;;25.00;;
19521;SDS011;9905;52.126;5.596;2024-01-15T06:23:37;26.37;;;25.57;;
19521;SDS011;9905;52.126;5.596;2024-01-15T06:26:04;27.38;;;26.25;;
19521;SDS011;9905;52.126;5.596;2024-01-15T06:28:31;29.45;;;27.63;;
19521;SDS011;9905;52.126;5.596;2024-01-15T06:30:58;26.00;;;25.00;;
19521;SDS011;9905;52.126;5.596;2024-01-15T06:33:24;27.52;;;26.10;;
19521;SDS011;9905;52.126;5.596;2024-01-15T06:35:51;27.13;;;25.80;;
19521;SDS011;9905;52.126;5.596;2024-01-15T06:38:18;28.40;;;27.07;;
19521;SDS011;9905;52.126;5.596;2024-01-15T06:40:46;28.52;;;26.88;;
19521;SDS011;9905;52.126;5.596;2024-01-15T06:43:13;28.33;;;27.33;;
19521;SDS011;9905;52.126;5.596;2024-01-15T06:45:41;28.08;;;26.75;;
19521;SDS011;9905;52.126;5.596;2024-01-15T06:48:07;27.65;;;26.48;;
19521;SDS011;9905;52.126;5.596;2024-01-15T06:50:34;26.70;;;25.33;;
19521;SDS011;9905;52.126;5.596;2024-01-15T06:53:01;27.90;;;26.50;;
19521;SDS011;9905;52.126;5.596;2024-01-15T06:55:28;27.90;;;26.60;;
19521;SDS011;9905;52.126;5.596;2024-01-15T06:57:56;26.73;;;25.63;;
19521;SDS011;9905;52.126;5.596;2024-01-15T07:00:22;27.10;;;26.00;;
19521;SDS011;9905;52.126;5.596;2024-01-15T07:02:49;28.48;;;27.08;;
19521;SDS011;9905;52.126;5.596;2024-01-15T07:05:16;28.95;;;27.73;;
19521;SDS011;9905;52.126;5.596;2024-01-15T07:07:43;29.80;;;28.45;;
19521;SDS011;9905;52.126;5.596;2024-01-15T07:10:10;28.33;;;26.88;;
19521;SDS011;9905;52.126;5.596;2024-01-15T07:12:37;28.95;;;27.20;;
19521;SDS011;9905;52.126;5.596;2024-01-15T07:15:05;28.88;;;27.50;;
19521;SDS011;9905;52.126;5.596;2024-01-15T07:17:33;28.80;;;27.58;;
19521;SDS011;9905;52.126;5.596;2024-01-15T07:20:00;29.20;;;27.67;;
19521;SDS011;9905;52.126;5.596;2024-01-15T07:22:27;29.88;;;28.67;;
19521;SDS011;9905;52.126;5.596;2024-01-15T07:24:54;30.58;;;28.90;;
19521;SDS011;9905;52.126;5.596;2024-01-15T07:27:21;30.00;;;28.60;;
19521;SDS011;9905;52.126;5.596;2024-01-15T07:29:48;30.17;;;28.83;;
19521;SDS011;9905;52.126;5.596;2024-01-15T07:32:16;30.17;;;28.67;;
19521;SDS011;9905;52.126;5.596;2024-01-15T07:34:43;30.25;;;28.85;;
19521;SDS011;9905;52.126;5.596;2024-01-15T07:37:09;29.58;;;28.10;;
19521;SDS011;9905;52.126;5.596;2024-01-15T07:39:36;31.13;;;29.70;;
19521;SDS011;9905;52.126;5.596;2024-01-15T07:42:03;30.27;;;29.00;;
19521;SDS011;9905;52.126;5.596;2024-01-15T07:44:30;27.60;;;26.25;;
19521;SDS011;9905;52.126;5.596;2024-01-15T07:46:57;29.40;;;28.00;;
19521;SDS011;9905;52.126;5.596;2024-01-15T07:49:25;28.65;;;27.48;;
19521;SDS011;9905;52.126;5.596;2024-01-15T07:51:52;29.85;;;28.08;;
19521;SDS011;9905;52.126;5.596;2024-01-15T07:54:19;27.35;;;25.85;;
19521;SDS011;9905;52.126;5.596;2024-01-15T07:56:55;28.27;;;26.98;;
19521;SDS011;9905;52.126;5.596;2024-01-15T07:59:23;29.13;;;27.93;;
19521;SDS011;9905;52.126;5.596;2024-01-15T08:01:50;28.52;;;27.40;;
19521;SDS011;9905;52.126;5.596;2024-01-15T08:04:17;27.40;;;26.40;;
19521;SDS011;9905;52.126;5.596;2024-01-15T08:06:48;28.43;;;27.33;;
19521;SDS011;9905;52.126;5.596;2024-01-15T08:09:14;29.17;;;27.75;;
19521;SDS011;9905;52.126;5.596;2024-01-15T08:11:41;30.58;;;29.20;;
19521;SDS011;9905;52.126;5.596;2024-01-15T08:14:08;29.27;;;28.00;;
19521;SDS011;9905;52.126;5.596;2024-01-15T08:16:36;29.30;;;27.90;;
19521;SDS011;9905;52.126;5.596;2024-01-15T08:19:02;30.05;;;28.58;;
19521;SDS011;9905;52.126;5.596;2024-01-15T08:21:29;30.95;;;29.35;;
19521;SDS011;9905;52.126;5.596;2024-01-15T08:23:58;29.27;;;27.97;;
19521;SDS011;9905;52.126;5.596;2024-01-15T08:26:26;29.58;;;28.13;;
19521;SDS011;9905;52.126;5.596;2024-01-15T08:28:52;30.20;;;28.83;;
19521;SDS011;9905;52.126;5.596;2024-01-15T08:31:19;29.95;;;28.45;;
19521;SDS011;9905;52.126;5.596;2024-01-15T08:33:46;30.13;;;28.83;;
19521;SDS011;9905;52.126;5.596;2024-01-15T08:36:13;30.30;;;29.00;;
19521;SDS011;9905;52.126;5.596;2024-01-15T08:38:40;28.97;;;27.57;;
19521;SDS011;9905;52.126;5.596;2024-01-15T08:41:08;29.87;;;28.00;;
19521;SDS011;9905;52.126;5.596;2024-01-15T08:43:34;30.10;;;28.70;;
19521;SDS011;9905;52.126;5.596;2024-01-15T08:46:01;30.02;;;28.42;;
19521;SDS011;9905;52.126;5.596;2024-01-15T08:48:28;29.27;;;28.08;;
19521;SDS011;9905;52.126;5.596;2024-01-15T08:50:55;30.73;;;29.05;;
19521;SDS011;9905;52.126;5.596;2024-01-15T08:53:22;29.30;;;27.90;;
19521;SDS011;9905;52.126;5.596;2024-01-15T08:55:49;29.65;;;28.30;;
19521;SDS011;9905;52.126;5.596;2024-01-15T08:58:17;30.20;;;28.43;;
19521;SDS011;9905;52.126;5.596;2024-01-15T09:00:44;31.13;;;29.30;;
19521;SDS011;9905;52.126;5.596;2024-01-15T09:03:11;31.58;;;29.98;;
19521;SDS011;9905;52.126;5.596;2024-01-15T09:05:37;32.45;;;30.50;;
19521;SDS011;9905;52.126;5.596;2024-01-15T09:08:05;32.42;;;30.83;;
19521;SDS011;9905;52.126;5.596;2024-01-15T09:10:32;33.80;;;32.03;;
19521;SDS011;9905;52.126;5.596;2024-01-15T09:12:59;31.05;;;29.63;;
19521;SDS011;9905;52.126;5.596;2024-01-15T09:15:27;32.67;;;31.10;;
19521;SDS011;9905;52.126;5.596;2024-01-15T09:17:54;31.23;;;29.75;;
19521;SDS011;9905;52.126;5.596;2024-01-15T09:20:22;32.05;;;30.20;;
19521;SDS011;9905;52.126;5.596;2024-01-15T09:22:49;32.10;;;30.40;;
19521;SDS011;9905;52.126;5.596;2024-01-15T09:25:16;30.40;;;29.13;;
19521;SDS011;9905;52.126;5.596;2024-01-15T09:27:43;32.03;;;30.33;;
19521;SDS011;9905;52.126;5.596;2024-01-15T09:30:10;30.95;;;29.55;;
19521;SDS011;9905;52.126;5.596;2024-01-15T09:32:39;31.08;;;29.33;;
19521;SDS011;9905;52.126;5.596;2024-01-15T09:35:06;29.92;;;28.38;;
19521;SDS011;9905;52.126;5.596;2024-01-15T09:37:34;31.48;;;29.90;;
19521;SDS011;9905;52.126;5.596;2024-01-15T09:40:00;32.75;;;30.77;;
19521;SDS011;9905;52.126;5.596;2024-01-15T09:42:28;31.00;;;29.20;;
19521;SDS011;9905;52.126;5.596;2024-01-15T09:44:55;29.50;;;28.10;;
19521;SDS011;9905;52.126;5.596;2024-01-15T09:47:23;30.93;;;29.10;;
19521;SDS011;9905;52.126;5.596;2024-01-15T09:49:52;29.98;;;28.42;;
19521;SDS011;9905;52.126;5.596;2024-01-15T09:52:19;31.25;;;29.75;;
19521;SDS011;9905;52.126;5.596;2024-01-15T09:54:46;29.35;;;27.95;;
19521;SDS011;9905;52.126;5.596;2024-01-15T09:57:14;31.60;;;29.42;;
19521;SDS011;9905;52.126;5.596;2024-01-15T09:59:41;28.02;;;27.02;;
19521;SDS011;9905;52.126;5.596;2024-01-15T10:02:12;30.55;;;29.08;;
19521;SDS011;9905;52.126;5.596;2024-01-15T10:04:43;31.00;;;29.63;;
19521;SDS011;9905;52.126;5.596;2024-01-15T10:07:11;31.00;;;29.48;;
19521;SDS011;9905;52.126;5.596;2024-01-15T10:09:42;27.95;;;26.80;;
19521;SDS011;9905;52.126;5.596;2024-01-15T10:12:09;29.30;;;27.92;;
19521;SDS011;9905;52.126;5.596;2024-01-15T10:14:37;28.15;;;26.55;;
19521;SDS011;9905;52.126;5.596;2024-01-15T10:17:11;28.67;;;27.38;;
19521;SDS011;9905;52.126;5.596;2024-01-15T10:19:39;28.23;;;26.98;;
19521;SDS011;9905;52.126;5.596;2024-01-15T10:22:07;29.35;;;27.80;;
19521;SDS011;9905;52.126;5.596;2024-01-15T10:24:36;27.30;;;26.20;;
19521;SDS011;9905;52.126;5.596;2024-01-15T10:27:07;26.98;;;25.77;;
19521;SDS011;9905;52.126;5.596;2024-01-15T10:29:34;26.67;;;25.48;;
19521;SDS011;9905;52.126;5.596;2024-01-15T10:32:01;28.25;;;27.02;;
19521;SDS011;9905;52.126;5.596;2024-01-15T10:34:30;27.83;;;26.63;;
19521;SDS011;9905;52.126;5.596;2024-01-15T10:36:56;26.92;;;25.80;;
19521;SDS011;9905;52.126;5.596;2024-01-15T10:39:23;29.77;;;28.35;;
19521;SDS011;9905;52.126;5.596;2024-01-15T10:41:51;29.40;;;27.80;;
19521;SDS011;9905;52.126;5.596;2024-01-15T10:44:18;29.33;;;27.90;;
19521;SDS011;9905;52.126;5.596;2024-01-15T10:46:45;29.63;;;27.97;;
19521;SDS011;9905;52.126;5.596;2024-01-15T10:49:12;28.90;;;27.70;;
19521;SDS011;9905;52.126;5.596;2024-01-15T10:51:39;28.20;;;26.97;;
19521;SDS011;9905;52.126;5.596;2024-01-15T10:54:08;29.38;;;27.83;;
19521;SDS011;9905;52.126;5.596;2024-01-15T10:56:36;28.25;;;26.98;;
19521;SDS011;9905;52.126;5.596;2024-01-15T10:59:04;30.13;;;28.75;;
19521;SDS011;9905;52.126;5.596;2024-01-15T11:01:32;29.67;;;28.17;;
19521;SDS011;9905;52.126;5.596;2024-01-15T11:03:59;27.98;;;26.40;;
19521;SDS011;9905;52.126;5.596;2024-01-15T11:06:27;29.38;;;27.83;;
19521;SDS011;9905;52.126;5.596;2024-01-15T11:09:06;28.55;;;27.40;;
19521;SDS011;9905;52.126;5.596;2024-01-15T11:11:34;30.20;;;28.63;;
19521;SDS011;9905;52.126;5.596;2024-01-15T11:14:01;30.00;;;28.70;;
19521;SDS011;9905;52.126;5.596;2024-01-15T11:16:36;29.70;;;28.25;;
19521;SDS011;9905;52.126;5.596;2024-01-15T11:19:21;29.07;;;27.67;;
19521;SDS011;9905;52.126;5.596;2024-01-15T11:21:48;28.65;;;27.00;;
19521;SDS011;9905;52.126;5.596;2024-01-15T11:27:00;28.50;;;26.98;;
19521;SDS011;9905;52.126;5.596;2024-01-15T11:29:30;25.67;;;24.50;;
19521;SDS011;9905;52.126;5.596;2024-01-15T11:32:01;24.92;;;23.77;;
19521;SDS011;9905;52.126;5.596;2024-01-15T11:37:17;25.10;;;23.98;;
19521;SDS011;9905;52.126;5.596;2024-01-15T11:39:44;25.15;;;23.98;;
19521;SDS011;9905;52.126;5.596;2024-01-15T11:42:12;25.50;;;24.40;;
19521;SDS011;9905;52.126;5.596;2024-01-15T11:44:40;24.33;;;23.40;;
19521;SDS011;9905;52.126;5.596;2024-01-15T11:47:10;23.92;;;22.83;;
19521;SDS011;9905;52.126;5.596;2024-01-15T11:49:48;23.67;;;22.83;;
19521;SDS011;9905;52.126;5.596;2024-01-15T11:52:26;22.13;;;21.35;;
19521;SDS011;9905;52.126;5.596;2024-01-15T11:55:00;21.77;;;20.95;;
19521;SDS011;9905;52.126;5.596;2024-01-15T11:57:37;22.08;;;21.33;;
19521;SDS011;9905;52.126;5.596;2024-01-15T12:00:08;21.63;;;20.88;;
19521;SDS011;9905;52.126;5.596;2024-01-15T12:02:37;19.65;;;18.80;;
19521;SDS011;9905;52.126;5.596;2024-01-15T12:05:05;18.65;;;17.83;;
19521;SDS011;9905;52.126;5.596;2024-01-15T12:07:32;19.55;;;18.75;;
19521;SDS011;9905;52.126;5.596;2024-01-15T12:09:59;17.52;;;16.92;;
19521;SDS011;9905;52.126;5.596;2024-01-15T12:12:28;15.88;;;15.25;;
19521;SDS011;9905;52.126;5.596;2024-01-15T12:15:02;16.13;;;15.43;;
19521;SDS011;9905;52.126;5.596;2024-01-15T12:17:30;14.95;;;14.30;;
19521;SDS011;9905;52.126;5.596;2024-01-15T12:19:58;17.20;;;16.15;;
19521;SDS011;9905;52.126;5.596;2024-01-15T12:22:25;16.02;;;15.25;;
19521;SDS011;9905;52.126;5.596;2024-01-15T12:24:52;16.23;;;15.73;;
19521;SDS011;9905;52.126;5.596;2024-01-15T12:27:19;18.48;;;17.98;;
19521;SDS011;9905;52.126;5.596;2024-01-15T12:29:47;18.08;;;17.30;;
19521;SDS011;9905;52.126;5.596;2024-01-15T12:32:13;19.38;;;18.73;;
19521;SDS011;9905;52.126;5.596;2024-01-15T12:34:40;18.13;;;17.65;;
19521;SDS011;9905;52.126;5.596;2024-01-15T12:37:08;21.27;;;20.67;;
19521;SDS011;9905;52.126;5.596;2024-01-15T12:39:36;19.40;;;18.83;;
19521;SDS011;9905;52.126;5.596;2024-01-15T12:42:03;19.63;;;18.92;;
19521;SDS011;9905;52.126;5.596;2024-01-15T12:44:30;20.10;;;19.30;;
19521;SDS011;9905;52.126;5.596;2024-01-15T12:46:57;20.55;;;19.73;;
19521;SDS011;9905;52.126;5.596;2024-01-15T12:49:24;21.13;;;20.40;;
19521;SDS011;9905;52.126;5.596;2024-01-15T12:51:52;20.03;;;19.33;;
19521;SDS011;9905;52.126;5.596;2024-01-15T12:54:20;19.52;;;18.65;;
19521;SDS011;9905;52.126;5.596;2024-01-15T12:56:47;21.60;;;20.27;;
19521;SDS011;9905;52.126;5.596;2024-01-15T12:59:13;19.67;;;18.75;;
19521;SDS011;9905;52.126;5.596;2024-01-15T13:01:40;20.48;;;19.48;;
19521;SDS011;9905;52.126;5.596;2024-01-15T13:04:07;19.00;;;18.08;;
19521;SDS011;9905;52.126;5.596;2024-01-15T13:06:34;18.35;;;17.58;;
19521;SDS011;9905;52.126;5.596;2024-01-15T13:09:02;19.27;;;18.48;;
19521;SDS011;9905;52.126;5.596;2024-01-15T13:11:31;18.60;;;17.85;;
19521;SDS011;9905;52.126;5.596;2024-01-15T13:13:58;18.92;;;18.10;;
19521;SDS011;9905;52.126;5.596;2024-01-15T13:16:25;17.27;;;16.48;;
19521;SDS011;9905;52.126;5.596;2024-01-15T13:18:54;16.35;;;15.82;;
19521;SDS011;9905;52.126;5.596;2024-01-15T13:21:21;16.35;;;15.63;;
19521;SDS011;9905;52.126;5.596;2024-01-15T13:23:48;16.25;;;15.55;;
19521;SDS011;9905;52.126;5.596;2024-01-15T13:26:15;17.20;;;16.38;;
19521;SDS011;9905;52.126;5.596;2024-01-15T13:28:44;16.05;;;15.30;;
19521;SDS011;9905;52.126;5.596;2024-01-15T13:31:11;16.63;;;15.73;;
19521;SDS011;9905;52.126;5.596;2024-01-15T13:33:38;17.30;;;16.42;;
19521;SDS011;9905;52.126;5.596;2024-01-15T13:36:05;18.77;;;17.67;;
19521;SDS011;9905;52.126;5.596;2024-01-15T13:38:35;18.95;;;17.80;;
19521;SDS011;9905;52.126;5.596;2024-01-15T13:41:03;17.58;;;16.85;;
19521;SDS011;9905;52.126;5.596;2024-01-15T13:43:30;17.75;;;17.02;;
19521;SDS011;9905;52.126;5.596;2024-01-15T13:45:59;17.52;;;16.75;;
19521;SDS011;9905;52.126;5.596;2024-01-15T13:48:29;17.65;;;16.75;;
19521;SDS011;9905;52.126;5.596;2024-01-15T13:50:56;16.83;;;15.70;;
19521;SDS011;9905;52.126;5.596;2024-01-15T13:53:24;15.98;;;15.15;;
19521;SDS011;9905;52.126;5.596;2024-01-15T13:55:50;15.25;;;14.40;;
19521;SDS011;9905;52.126;5.596;2024-01-15T13:58:18;14.85;;;13.95;;
19521;SDS011;9905;52.126;5.596;2024-01-15T14:00:46;14.23;;;13.50;;
19521;SDS011;9905;52.126;5.596;2024-01-15T14:03:14;13.07;;;12.43;;
19521;SDS011;9905;52.126;5.596;2024-01-15T14:05:41;13.15;;;12.40;;
19521;SDS011;9905;52.126;5.596;2024-01-15T14:08:08;13.88;;;12.82;;
19521;SDS011;9905;52.126;5.596;2024-01-15T14:10:34;13.07;;;12.18;;
19521;SDS011;9905;52.126;5.596;2024-01-15T14:13:02;11.25;;;10.75;;
19521;SDS011;9905;52.126;5.596;2024-01-15T14:15:29;11.40;;;10.63;;
19521;SDS011;9905;52.126;5.596;2024-01-15T14:17:56;11.13;;;10.73;;
19521;SDS011;9905;52.126;5.596;2024-01-15T14:20:25;11.85;;;11.02;;
19521;SDS011;9905;52.126;5.596;2024-01-15T14:22:52;11.98;;;11.25;;
19521;SDS011;9905;52.126;5.596;2024-01-15T14:25:19;11.95;;;11.10;;
19521;SDS011;9905;52.126;5.596;2024-01-15T14:27:45;12.07;;;11.35;;
19521;SDS011;9905;52.126;5.596;2024-01-15T14:30:13;12.48;;;11.57;;
19521;SDS011;9905;52.126;5.596;2024-01-15T14:32:41;12.35;;;11.32;;
19521;SDS011;9905;52.126;5.596;2024-01-15T14:35:07;12.82;;;11.90;;
19521;SDS011;9905;52.126;5.596;2024-01-15T14:37:37;10.77;;;9.98;;
19521;SDS011;9905;52.126;5.596;2024-01-15T14:40:04;10.70;;;10.10;;
19521;SDS011;9905;52.126;5.596;2024-01-15T14:42:32;10.35;;;9.65;;